Latest Weather Observations for Stawell

IDV60801

Issued at 2:35 am EDT Saturday 1 November 2014 (issued every 30 minutes, with the page automatically refreshed every 10 minutes)

About weather observations | Map of weather stations | Latest weather observations for VIC | Other Formats
Station Details ID: 079105 Name: STAWELL AERODROME Lat: -37.07 Lon: 142.74 Height: 235.36 m
Data from the previous 72 hours. | See also: Recent months at Stawell
Date/Time
EDT
Temp
°C
App
Temp
°C
Dew
Point
Rel
Hum
%
Delta-T
°C
Wind Press
QNH
hPa
Press
MSL
hPa
Rain
since 9 am
mm
Dir
 
Spd
km/h
Gust
km/h
Spd
kts
Gust
kts
01/02:30am 16.9 16.0 9.1 60 4.1 SW 4 11 2 6 999.7 - 0.0
01/02:00am 17.6 16.5 6.8 49 5.5 SSW 2 7 1 4 999.7 - 0.0
01/01:30am 17.7 15.1 6.3 47 5.7 SSW 9 13 5 7 1000.2 - 0.0
01/01:00am 18.2 13.4 5.4 43 6.3 SW 20 35 11 19 1000.5 - 0.0
01/12:30am 19.3 14.5 5.7 41 6.8 SSW 20 30 11 16 999.8 - 0.0
01/12:00am 22.1 18.2 5.5 34 8.4 S 15 24 8 13 998.7 999.1 0.0
 
Date/Time
EDT
Temp
°C
App
Temp
°C
Dew
Point
Rel
Hum
%
Delta-T
°C
Wind Press
QNH
hPa
Press
MSL
hPa
Rain
since 9 am
mm
Dir
 
Spd
km/h
Gust
km/h
Spd
kts
Gust
kts
31/11:30pm 22.8 19.0 5.7 33 8.7 SSW 15 26 8 14 999.1 - 0.0
31/11:00pm 24.1 19.9 4.0 27 10.0 SW 15 28 8 15 998.3 - 0.0
31/10:30pm 24.8 20.3 2.3 23 10.9 WSW 15 24 8 13 998.4 - 0.0
31/10:00pm 25.9 20.3 3.2 23 11.3 SW 22 37 12 20 998.1 - 0.0
31/09:30pm 28.5 24.3 1.9 18 13.1 W 13 30 7 16 997.7 - 0.0
31/09:00pm 28.4 24.7 2.6 19 13.0 N 11 13 6 7 996.9 997.6 0.0
31/08:30pm 29.1 24.6 2.4 18 13.4 NW 15 30 8 16 996.9 - 0.0
31/08:10pm 30.3 21.3 -0.1 14 14.8 NNW 37 80 20 43 997.6 - 0.0
31/08:08pm 30.5 21.3 -1.0 13 15.0 NNW 37 48 20 26 997.3 - 0.0
31/08:00pm 30.1 24.9 -2.4 12 15.1 NNW 15 19 8 10 997.1 - 0.0
31/07:30pm 30.7 24.7 -3.1 11 15.5 NNW 19 26 10 14 996.9 - 0.0
31/07:00pm 31.4 22.7 -3.8 10 16.1 NNW 33 46 18 25 997.0 - 0.0
31/06:49pm 31.8 23.7 -3.5 10 16.3 NW 30 48 16 26 997.2 - 0.0
31/06:30pm 32.0 23.5 -3.4 10 16.4 NW 32 43 17 23 997.4 - 0.0
31/06:03pm 31.9 23.2 -3.5 10 16.3 NW 33 52 18 28 997.7 - 0.0
31/06:00pm 31.9 22.8 -3.5 10 16.4 NW 35 52 19 28 997.8 998.5 0.0
31/05:30pm 31.9 23.0 -2.2 11 16.1 NNW 35 44 19 24 998.3 - 0.0
31/05:13pm 32.3 23.8 -1.9 11 16.2 NNW 33 52 18 28 998.6 - 0.0
31/05:11pm 31.7 22.0 -2.3 11 16.0 N 39 52 21 28 998.5 - 0.0
31/05:03pm 32.0 24.4 -2.1 11 16.1 NW 28 46 15 25 998.6 - 0.0
31/05:00pm 33.0 25.9 -1.4 11 16.6 NW 26 39 14 21 998.8 - 0.0
31/04:35pm 31.4 23.5 -1.4 12 15.6 NW 30 50 16 27 999.2 - 0.0
31/04:30pm 31.4 23.9 -1.4 12 15.6 NW 28 39 15 21 999.3 - 0.0
31/04:23pm 31.5 23.3 -1.3 12 15.6 NW 32 50 17 27 999.5 - 0.0
31/04:00pm 31.9 25.1 -2.2 11 16.1 NW 24 35 13 19 999.9 - 0.0
31/03:38pm 32.5 24.4 -3.0 10 16.6 WNW 30 50 16 27 1000.3 - 0.0
31/03:30pm 32.2 23.7 -2.0 11 16.2 NW 33 50 18 27 1000.5 - 0.0
31/03:14pm 31.7 23.7 -2.3 11 16.0 NNW 30 48 16 26 1000.9 - 0.0
31/03:00pm 31.8 23.2 -2.3 11 16.1 NNW 33 46 18 25 1001.3 1002.0 0.0
31/02:42pm 31.7 23.3 -2.3 11 16.0 NNW 32 52 17 28 1001.7 - 0.0
31/02:30pm 31.0 21.8 -1.7 12 15.4 NW 37 50 20 27 1001.9 - 0.0
31/02:28pm 31.5 22.3 -1.3 12 15.6 NW 37 46 20 25 1001.9 - 0.0
31/02:00pm 29.8 21.3 -1.5 13 14.7 N 33 54 18 29 1002.5 - 0.0
31/01:58pm 30.4 22.0 -1.1 13 15.0 NNW 33 54 18 29 1002.6 - 0.0
31/01:42pm 29.4 20.9 -1.9 13 14.6 N 33 43 18 23 1003.1 - 0.0
31/01:39pm 30.0 20.8 -1.4 13 14.8 NW 37 43 20 23 1003.0 - 0.0
31/01:30pm 29.2 21.4 -1.0 14 14.2 N 30 44 16 24 1003.4 - 0.0
31/01:00pm 28.6 21.2 -0.5 15 13.8 N 28 43 15 23 1004.2 - 0.0
31/12:35pm 27.0 19.2 -0.9 16 13.0 N 30 48 16 26 1004.8 - 0.0
31/12:30pm 27.5 19.9 0.3 17 13.0 N 30 43 16 23 1004.9 - 0.0
31/12:00pm 26.1 18.9 0.7 19 12.1 N 28 41 15 22 1005.8 1006.5 0.0
31/11:30am 25.1 18.2 2.5 23 11.0 N 28 41 15 22 1006.4 - 0.0
31/11:00am 23.4 18.4 4.4 29 9.5 N 20 33 11 18 1007.2 - 0.0
31/10:30am 22.0 17.4 5.4 34 8.4 N 19 26 10 14 1007.7 - 0.0
31/10:00am 20.0 17.5 8.0 46 6.3 NE 11 19 6 10 1007.8 - 0.0
31/09:30am 17.5 15.4 8.4 55 4.7 NNE 9 13 5 7 1008.4 - 0.0
31/09:00am 14.7 13.2 8.6 67 3.1 NNW 6 7 3 4 1009.0 1009.7 0.0
31/08:30am 14.2 12.2 8.8 70 2.8 NW 9 11 5 6 1008.9 - 0.0
31/08:00am 14.0 13.1 9.2 73 2.5 E 4 7 2 4 1008.7 - 0.0
31/07:30am 11.8 10.2 8.8 82 1.5 E 7 11 4 6 1008.2 - 0.0
31/07:00am 10.3 8.2 8.4 88 0.9 E 9 11 5 6 1008.3 - 0.0
31/06:30am 9.5 7.9 8.1 91 0.7 ESE 6 7 3 4 1008.7 - 0.0
31/06:00am 8.5 7.1 7.4 93 0.5 ESE 4 7 2 4 1008.7 1009.4 0.0
31/05:30am 7.4 6.5 6.2 92 0.6 CALM 0 0 0 0 1008.9 - 0.0
31/05:00am 8.4 7.8 7.2 92 0.6 CALM 0 0 0 0 1009.1 - 0.0
31/04:30am 8.7 6.9 7.3 91 0.7 SE 6 7 3 4 1009.4 - 0.0
31/04:00am 8.5 7.9 7.3 92 0.6 CALM 0 0 0 0 1009.6 - 0.0
31/03:30am 8.1 7.3 6.7 91 0.7 CALM 0 0 0 0 1010.1 - 0.0
31/03:00am 8.8 7.4 7.3 90 0.7 WNW 4 6 2 3 1010.2 1010.9 0.0
31/02:30am 9.6 8.0 7.9 89 0.8 WNW 6 7 3 4 1010.4 - 0.0
31/02:00am 9.0 7.9 7.1 88 0.9 SW 2 7 1 4 1010.8 - 0.0
31/01:30am 10.5 10.1 8.3 86 1.1 CALM 0 0 0 0 1011.4 - 0.0
31/01:00am 10.8 9.1 8.4 85 1.2 SW 7 9 4 5 1011.9 - 0.0
31/12:30am 11.6 9.2 8.8 83 1.4 SSW 11 15 6 8 1012.0 - 0.0
31/12:00am 12.1 10.6 8.4 78 1.9 SW 6 7 3 4 1012.0 1012.8 0.0
 
Date/Time
EDT
Temp
°C
App
Temp
°C
Dew
Point
Rel
Hum
%
Delta-T
°C
Wind Press
QNH
hPa
Press
MSL
hPa
Rain
since 9 am
mm
Dir
 
Spd
km/h
Gust
km/h
Spd
kts
Gust
kts
30/11:30pm 13.6 11.9 8.2 70 2.7 SSW 7 9 4 5 1012.4 - 0.0
30/11:00pm 15.0 13.9 8.5 65 3.3 SSW 4 7 2 4 1012.5 - 0.0
30/10:30pm 16.0 14.1 7.5 57 4.3 S 7 13 4 7 1012.7 - 0.0
30/10:00pm 16.2 15.6 7.2 55 4.5 CALM 0 0 0 0 1012.4 - 0.0
30/09:30pm 17.1 15.1 6.9 51 5.1 S 7 7 4 4 1012.1 - 0.0
30/09:00pm 17.6 14.8 5.2 44 6.0 SSW 9 13 5 7 1011.8 1012.6 0.0
30/08:30pm 18.6 16.0 4.0 38 7.0 SW 7 9 4 5 1011.6 - 0.0
30/08:00pm 20.4 17.7 3.6 33 8.1 WSW 7 9 4 5 1011.3 - 0.0
30/07:30pm 22.3 19.2 3.4 29 9.2 W 9 13 5 7 1011.1 - 0.0
30/07:00pm 23.0 19.0 3.0 27 9.7 W 13 17 7 9 1011.0 - 0.0
30/06:30pm 23.7 20.2 3.6 27 9.9 W 11 17 6 9 1011.0 - 0.0
30/06:00pm 23.7 20.3 4.1 28 9.8 WSW 11 19 6 10 1011.1 1011.8 0.0
30/05:30pm 23.5 19.2 3.4 27 9.9 WSW 15 24 8 13 1011.3 - 0.0
30/05:00pm 24.0 20.0 4.9 29 9.7 WSW 15 22 8 12 1011.3 - 0.0
30/04:30pm 24.2 21.3 4.6 28 9.9 SSW 9 19 5 10 1011.4 - 0.0
30/04:00pm 23.1 20.6 4.6 30 9.3 W 7 13 4 7 1011.5 - 0.0
30/03:30pm 23.0 19.1 3.5 28 9.5 WNW 13 28 7 15 1011.8 - 0.0
30/03:00pm 22.2 18.9 4.3 31 8.9 ENE 11 17 6 9 1012.0 1012.8 0.0
30/02:30pm 21.5 18.2 4.6 33 8.4 NW 11 20 6 11 1012.3 - 0.0
30/02:00pm 21.1 17.3 3.8 32 8.4 WNW 13 20 7 11 1012.8 - 0.0
30/01:30pm 19.8 16.5 4.3 36 7.5 NNW 11 19 6 10 1013.3 - 0.0
30/01:00pm 19.4 16.6 5.1 39 7.0 N 9 15 5 8 1013.7 - 0.0
30/12:30pm 18.9 16.3 6.1 43 6.4 N 9 15 5 8 1014.0 - 0.0
30/12:00pm 17.8 15.6 6.0 46 5.8 NE 7 19 4 10 1014.3 1015.0 0.0
30/11:30am 17.0 14.9 6.5 50 5.2 NW 7 15 4 8 1014.6 - 0.0
30/11:00am 15.8 13.3 6.5 54 4.6 SW 9 15 5 8 1014.8 - 0.0
30/10:30am 15.7 13.9 7.2 57 4.3 S 6 9 3 5 1015.1 - 0.0
30/10:00am 14.9 12.9 7.2 60 3.8 SW 7 17 4 9 1015.2 - 0.0
30/09:30am 14.0 12.1 7.5 65 3.2 N 7 11 4 6 1015.1 - 0.0
30/09:00am 13.4 12.8 7.4 67 3.0 CALM 0 7 0 4 1015.0 1015.8 0.0
30/08:30am 13.3 11.7 8.0 70 2.7 S 6 13 3 7 1015.6 - 0.0
30/08:00am 10.8 10.4 8.2 84 1.3 CALM 0 0 0 0 1015.3 - 0.0
30/07:30am 10.0 8.8 7.9 87 1.0 WNW 4 6 2 3 1014.7 - 0.0
30/07:00am 9.0 8.5 7.9 93 0.5 CALM 0 6 0 3 1014.5 - 0.0
30/06:30am 7.3 6.4 6.2 93 0.5 CALM 0 6 0 3 1014.1 - 0.0
30/06:00am 7.7 6.9 6.6 93 0.5 CALM 0 0 0 0 1013.8 1014.5 0.0
30/05:30am 8.8 8.2 7.6 92 0.6 CALM 0 0 0 0 1014.1 - 0.0
30/05:00am 7.4 5.4 6.3 93 0.5 SSE 6 11 3 6 1014.5 - 0.0
30/04:30am 8.1 6.4 7.5 96 0.3 SW 6 7 3 4 1014.1 - 0.0
30/04:00am 8.8 7.0 7.1 89 0.8 ESE 6 9 3 5 1013.4 - 0.0
30/03:30am 10.0 8.0 8.8 92 0.6 E 9 11 5 6 1013.4 - 0.0
30/03:00am 9.3 7.6 7.6 89 0.8 ESE 6 7 3 4 1013.7 1014.4 0.0
30/02:30am 10.7 8.9 9.3 91 0.7 ESE 9 11 5 6 1013.9 - 0.0
30/02:00am 9.9 9.6 8.5 91 0.7 CALM 0 6 0 3 1014.3 - 0.0
30/01:30am 10.7 10.5 9.1 90 0.8 CALM 0 6 0 3 1014.5 - 0.0
30/01:00am 11.9 11.0 9.3 84 1.3 E 4 6 2 3 1014.7 - 0.0
30/12:30am 12.7 11.1 10.1 84 1.4 SE 9 11 5 6 1014.8 - 0.0
30/12:00am 12.8 11.6 10.2 84 1.4 SE 7 11 4 6 1014.9 1015.7 0.0
 
Date/Time
EDT
Temp
°C
App
Temp
°C
Dew
Point
Rel
Hum
%
Delta-T
°C
Wind Press
QNH
hPa
Press
MSL
hPa
Rain
since 9 am
mm
Dir
 
Spd
km/h
Gust
km/h
Spd
kts
Gust
kts
29/11:30pm 13.4 11.0 10.2 81 1.7 ESE 13 17 7 9 1015.1 - 0.0
29/11:00pm 14.6 12.0 9.4 71 2.7 SSE 13 19 7 10 1015.5 - 0.0
29/10:30pm 15.7 12.7 7.7 59 4.0 S 13 20 7 11 1015.3 - 0.0
29/10:00pm 15.5 14.4 7.0 57 4.2 SSE 2 7 1 4 1015.2 - 0.0
29/09:30pm 16.3 15.7 7.3 55 4.5 CALM 0 6 0 3 1015.1 - 0.0
29/09:00pm 17.2 14.8 7.0 51 5.1 SW 9 13 5 7 1014.9 1015.7 0.0
29/08:30pm 18.0 15.2 6.8 48 5.6 WSW 11 17 6 9 1014.8 - 0.0
29/08:00pm 18.8 16.0 6.9 46 6.0 WSW 11 17 6 9 1014.5 - 0.0
29/07:30pm 20.4 17.6 7.1 42 6.9 WSW 11 20 6 11 1014.3 - 0.0
29/07:00pm 21.5 17.7 5.8 36 7.9 WSW 15 20 8 11 1014.0 - 0.0
29/06:30pm 22.3 18.8 5.3 33 8.6 W 13 24 7 13 1013.9 - 0.0
29/06:00pm 22.4 17.5 4.9 32 8.8 WSW 20 24 11 13 1013.7 1014.4 0.0
29/05:30pm 23.1 19.3 6.0 33 8.8 W 15 26 8 14 1013.7 - 0.0
29/05:00pm 23.0 19.1 5.4 32 8.9 WNW 15 26 8 14 1013.7 - 0.0
29/04:30pm 22.8 18.5 5.3 32 8.9 WNW 17 28 9 15 1014.0 - 0.0
29/04:00pm 21.9 16.6 4.9 33 8.5 NW 22 35 12 19 1014.2 - 0.0
29/03:30pm 22.0 17.2 5.4 34 8.4 NW 20 32 11 17 1014.4 - 0.0
29/03:00pm 21.8 16.6 5.7 35 8.1 NW 22 32 12 17 1014.8 1015.5 0.0
29/02:30pm 20.4 15.8 5.6 38 7.4 WNW 19 30 10 16 1015.2 - 0.0
29/02:00pm 20.4 16.3 6.0 39 7.3 WNW 17 28 9 15 1015.7 - 0.0
29/01:30pm 19.4 15.2 5.8 41 6.8 WNW 17 32 9 17 1016.1 - 0.0
29/01:00pm 18.4 14.5 6.9 47 5.8 NW 17 28 9 15 1016.4 - 0.0
29/12:30pm 17.6 14.1 7.1 50 5.3 WNW 15 24 8 13 1016.9 - 0.0
29/12:00pm 16.5 13.1 6.1 50 5.1 WNW 13 22 7 12 1017.3 1018.1 0.0
29/11:30am 15.5 12.5 6.2 54 4.6 NW 11 19 6 10 1017.7 - 0.0
29/11:00am 15.2 11.9 6.5 56 4.3 W 13 20 7 11 1018.0 - 0.0
29/10:30am 14.7 11.7 6.0 56 4.2 WNW 11 20 6 11 1018.2 - 0.0
29/10:00am 14.3 11.4 6.4 59 3.9 NW 11 19 6 10 1018.3 - 0.0
29/09:30am 13.4 10.7 5.8 60 3.6 WSW 9 15 5 8 1018.3 - 0.0
29/09:00am 12.8 10.2 5.9 63 3.3 NNW 9 15 5 8 1018.3 1019.0 0.0
29/08:30am 12.3 10.1 6.1 66 3.0 NW 7 13 4 7 1018.3 - 0.0
29/08:00am 11.0 9.1 6.6 74 2.1 N 6 9 3 5 1018.3 - 0.0
29/07:30am 9.4 7.5 6.7 83 1.3 ENE 6 7 3 4 1018.3 - 0.0
29/07:00am 7.9 6.6 6.0 88 0.9 NE 2 6 1 3 1018.1 - 0.0
29/06:30am 7.9 5.8 5.9 87 0.9 N 6 7 3 4 1017.7 - 0.0
29/06:00am 8.0 7.1 6.0 87 0.9 CALM 0 6 0 3 1017.2 1018.0 0.0
29/05:30am 7.9 5.7 5.4 84 1.1 S 6 7 3 4 1017.0 - 0.0
29/05:00am 9.1 8.2 6.2 82 1.4 CALM 0 0 0 0 1016.7 - 0.0
29/04:30am 9.0 7.7 6.1 82 1.3 W 2 7 1 4 1016.8 - 0.0
29/04:00am 9.4 8.6 6.3 81 1.5 CALM 0 0 0 0 1016.7 - 0.0
29/03:30am 9.2 7.7 6.6 84 1.2 ENE 4 6 2 3 1016.6 - 0.0
29/03:00am 9.4 8.5 6.1 80 1.5 CALM 0 0 0 0 1016.5 1017.3 0.0

Other Formats:

Comma delimited format used in spreadsheet applications
http://www.bom.gov.au/fwo/IDV60801/IDV60801.94836.axf

JavaScript Object Notation format (JSON) in row-major order
http://www.bom.gov.au/fwo/IDV60801/IDV60801.94836.json